Maersk Lirquen — VRKB8 — position and weather

sailwx.info

Track history (hours):
 
Tides and Currents Weather Stations Pressure Air Temp Water Temp Dewpoint Dewpoint Depression Visibility Wind Speed Wind Dir Waves Ship Positions

Maersk Lirquen

Last reported at 2016-Feb-08 00:26 UTC. Time now 2016-Feb-08 01:59 UTC.
Position S 34°56' W 056°13'.

Length 300 m; draft 9.2 m.

Type: Ship (hazmat cat A). MMSI: 477423500.

Date/timePositionNaut miles runAvg speedWind from/ knotsBaromVisibWave heightAir tempDewpointWater temp
2016-Feb-08 00:26S 34°56' W 056°13'17 5.8
2016-Feb-07 21:31S 35°10' W 056°26'1213.0
2016-Feb-07 20:34S 35°10' W 056°41'1312.8
2016-Feb-07 19:33S 35°10' W 056°57'1412.8
2016-Feb-07 18:28S 35°02' W 057°10'15 7.7
2016-Feb-07 16:32S 34°51' W 057°23'4 3.7
2016-Feb-07 15:23S 34°49' W 057°27'6 7.3
2016-Feb-07 14:34S 34°46' W 057°34'1211.7
2016-Feb-07 13:33S 34°45' W 057°48'1212.0
2016-Feb-07 12:33S 34°40' W 058°01'1413.6
2016-Feb-07 11:33S 34°36' W 058°17'3 3.4
2016-Feb-07 10:33S 34°39' W 058°21'0 0.0
2016-Feb-07 09:33S 34°39' W 058°21'0 0.0
2016-Feb-07 08:33S 34°39' W 058°21'0 0.0
2016-Feb-07 07:33S 34°39' W 058°21'0 0.0
2016-Feb-07 06:33S 34°39' W 058°21'0 0.0
2016-Feb-07 05:30S 34°39' W 058°21'0 0.0
2016-Feb-07 04:33S 34°39' W 058°21'0 0.0
2016-Feb-07 03:33S 34°39' W 058°21'0 0.0
2016-Feb-07 02:33S 34°39' W 058°21'0 0.0
2016-Feb-07 01:33S 34°39' W 058°21'0 0.0
2016-Feb-07 00:30S 34°39' W 058°21'0 0.0
2016-Feb-06 23:33S 34°39' W 058°21'0 0.0
2016-Feb-06 22:21S 34°39' W 058°21'0 0.0
2016-Feb-06 21:33S 34°39' W 058°21'0 0.0
2016-Feb-06 20:33S 34°39' W 058°21'0 0.0
2016-Feb-06 19:33S 34°39' W 058°21'0 0.0
2016-Feb-06 18:33S 34°39' W 058°21'0 0.0
2016-Feb-06 15:33S 34°39' W 058°21'0 0.0
2016-Feb-06 14:30S 34°39' W 058°21'0 0.0
2016-Feb-06 13:30S 34°39' W 058°21'0 0.0
2016-Feb-06 12:18S 34°39' W 058°21'0 0.0
2016-Feb-06 09:33S 34°39' W 058°21'0 0.0
2016-Feb-06 08:33S 34°39' W 058°21'0 0.0
2016-Feb-06 06:27S 34°39' W 058°21'0 0.0
2016-Feb-06 05:33S 34°39' W 058°21'0 0.0
2016-Feb-06 04:15S 34°39' W 058°21'0 0.0
2016-Feb-06 03:33S 34°39' W 058°21'0 0.0
2016-Feb-06 02:27S 34°39' W 058°21'0 0.0
2016-Feb-06 01:33S 34°39' W 058°21'0 0.0
2016-Feb-06 00:33S 34°39' W 058°21'0 0.0
2016-Feb-05 23:33S 34°39' W 058°21'0 0.0
2016-Feb-05 22:33S 34°39' W 058°21'4 3.6
2016-Feb-05 21:33S 34°36' W 058°17'1211.8
2016-Feb-05 20:33S 34°39' W 058°03'1312.6
2016-Feb-05 19:33S 34°44' W 057°49'9 9.3
2016-Feb-05 18:33S 34°45' W 057°37'1414.0
2016-Feb-05 17:33S 34°51' W 057°22'1414.1
2016-Feb-05 16:33S 35°02' W 057°11'1313.1
2016-Feb-05 15:33S 35°10' W 056°58'25211.7
2016-Feb-04 18:00S 33°30' W 052°18'8817.6 060 / 181013.0 5.4 1.525.522.625.0
2016-Feb-04 13:00S 32°18' W 051°18'6521.6 020 / 161011.7 5.4 1.523.518.824.0
2016-Feb-04 10:00S 31°24' W 050°36'24715.9 010 / 151009.6 1.523.021.525.0
2016-Feb-03 18:28S 27°49' W 048°16'1617.9
2016-Feb-03 17:33S 27°33' W 048°14'9917.8
2016-Feb-03 12:00S 25°54' W 048°12'118 3.0 120 / 141013.5 5.4 0.525.023.527.0
2016-Feb-01 20:33S 24°32' W 046°39'1120.5
2016-Feb-01 20:00S 24°24' W 046°30'4 8.4 110 / 61012.110.8 0.528.425.026.0
2016-Feb-01 19:33S 24°20' W 046°31'1413.5
2016-Feb-01 18:33S 24°09' W 046°24'10 9.9
2016-Feb-01 17:33S 23°60' W 046°19'5 4.5
2016-Feb-01 16:31S 23°55' W 046°21'0 0.1
2016-Feb-01 15:33S 23°55' W 046°21'0 0.0
2016-Feb-01 14:33S 23°55' W 046°21'0 0.0
2016-Feb-01 13:33S 23°55' W 046°21'0 0.0
2016-Feb-01 12:33S 23°55' W 046°21'0 0.0
2016-Feb-01 11:21S 23°55' W 046°21'0 0.0
2016-Feb-01 10:27S 23°55' W 046°21'0 0.0
2016-Feb-01 09:33S 23°55' W 046°21'0 0.0
2016-Feb-01 08:33S 23°55' W 046°21'0 0.0
2016-Feb-01 07:27S 23°55' W 046°21'0 0.0
2016-Feb-01 06:21S 23°55' W 046°21'0 0.0
2016-Feb-01 04:21S 23°55' W 046°21'0 0.0
2016-Feb-01 03:27S 23°55' W 046°21'0 0.0
2016-Jan-31 23:33S 23°55' W 046°21'0 0.0
2016-Jan-31 19:27S 23°55' W 046°21'0 0.0
2016-Jan-31 18:33S 23°55' W 046°21'0 0.0
2016-Jan-31 16:25S 23°55' W 046°21'4 4.9
2016-Jan-31 15:33S 23°58' W 046°18'7 6.9
2016-Jan-31 14:33S 24°04' W 046°22'8 7.9
2016-Jan-31 13:33S 24°12' W 046°22'0 0.4
2016-Jan-31 12:33S 24°12' W 046°22'3 6.1
2016-Jan-31 12:00S 24°12' W 046°18'4 8.3 999 / 31013.510.8 28.521.926.0
2016-Jan-31 11:33S 24°12' W 046°22'1 0.5
2016-Jan-31 10:33S 24°13' W 046°22'7 7.3
2016-Jan-31 09:33S 24°19' W 046°17'1212.2
2016-Jan-31 08:33S 24°23' W 046°05'1616.3
2016-Jan-31 07:33S 24°26' W 045°47'1716.9
2016-Jan-31 06:33S 24°28' W 045°29'1817.4
2016-Jan-31 05:33S 24°31' W 045°10'1717.2
2016-Jan-31 04:33S 24°33' W 044°51'1717.4
2016-Jan-31 03:33S 24°36' W 044°32'1717.3
2016-Jan-31 02:33S 24°39' W 044°14'1817.5
2016-Jan-31 01:33S 24°42' W 043°55'2017.5
2016-Jan-31 00:25S 24°44' W 043°33'58136.3
2016-Jan-31 00:00S 25°42' W 043°24'8521.3 050 / 181014.010.8 1.526.523.627.0
2016-Jan-30 20:00S 24°54' W 042°06'1317.5 060 / 181013.710.8 1.528.023.727.0
2016-Jan-30 19:15S 25°00' W 041°53'1217.7
2016-Jan-30 18:33S 25°02' W 041°40'4117.6
2016-Jan-30 16:14S 25°07' W 040°55'3417.9
2016-Jan-30 14:21S 25°10' W 040°18'37219.2
2016-Jan-29 19:00S 26°00' W 033°30'7618.9 150 / 91018.410.8 0.526.222.426.0
2016-Jan-29 15:00S 26°06' W 032°06'7117.8 020 / 101018.9 5.4 1.527.022.626.0
2016-Jan-29 11:00S 26°18' W 030°48'15219.0 260 / 131018.610.8 0.527.022.626.0
2016-Jan-29 03:00S 26°42' W 028°00'   280 / 101018.6 5.4 1.526.220.126.0
Track history (hours):
 
Tides and Currents Weather Stations Pressure Air Temp Water Temp Dewpoint Dewpoint Depression Visibility Wind Speed Wind Dir Waves Ship Positions

Maersk Lirquen

Last reported at 2016-Feb-08 00:26 UTC. Time now 2016-Feb-08 01:59 UTC.
Position S 34°56' W 056°13'.

Length 300 m; draft 9.2 m.

Type: Ship (hazmat cat A). MMSI: 477423500.

Date/timePositionNaut miles runAvg speedWind from/ knotsBaromVisibWave heightAir tempDewpointWater temp
2016-Feb-08 00:26S 34°56' W 056°13'17 5.8
2016-Feb-07 21:31S 35°10' W 056°26'1213.0
2016-Feb-07 20:34S 35°10' W 056°41'1312.8
2016-Feb-07 19:33S 35°10' W 056°57'1412.8
2016-Feb-07 18:28S 35°02' W 057°10'15 7.7
2016-Feb-07 16:32S 34°51' W 057°23'4 3.7
2016-Feb-07 15:23S 34°49' W 057°27'6 7.3
2016-Feb-07 14:34S 34°46' W 057°34'1211.7
2016-Feb-07 13:33S 34°45' W 057°48'1212.0
2016-Feb-07 12:33S 34°40' W 058°01'1413.6
2016-Feb-07 11:33S 34°36' W 058°17'3 3.4
2016-Feb-07 10:33S 34°39' W 058°21'0 0.0
2016-Feb-07 09:33S 34°39' W 058°21'0 0.0
2016-Feb-07 08:33S 34°39' W 058°21'0 0.0
2016-Feb-07 07:33S 34°39' W 058°21'0 0.0
2016-Feb-07 06:33S 34°39' W 058°21'0 0.0
2016-Feb-07 05:30S 34°39' W 058°21'0 0.0
2016-Feb-07 04:33S 34°39' W 058°21'0 0.0
2016-Feb-07 03:33S 34°39' W 058°21'0 0.0
2016-Feb-07 02:33S 34°39' W 058°21'0 0.0
2016-Feb-07 01:33S 34°39' W 058°21'0 0.0
2016-Feb-07 00:30S 34°39' W 058°21'0 0.0
2016-Feb-06 23:33S 34°39' W 058°21'0 0.0
2016-Feb-06 22:21S 34°39' W 058°21'0 0.0
2016-Feb-06 21:33S 34°39' W 058°21'0 0.0
2016-Feb-06 20:33S 34°39' W 058°21'0 0.0
2016-Feb-06 19:33S 34°39' W 058°21'0 0.0
2016-Feb-06 18:33S 34°39' W 058°21'0 0.0
2016-Feb-06 15:33S 34°39' W 058°21'0 0.0
2016-Feb-06 14:30S 34°39' W 058°21'0 0.0
2016-Feb-06 13:30S 34°39' W 058°21'0 0.0
2016-Feb-06 12:18S 34°39' W 058°21'0 0.0
2016-Feb-06 09:33S 34°39' W 058°21'0 0.0
2016-Feb-06 08:33S 34°39' W 058°21'0 0.0
2016-Feb-06 06:27S 34°39' W 058°21'0 0.0
2016-Feb-06 05:33S 34°39' W 058°21'0 0.0
2016-Feb-06 04:15S 34°39' W 058°21'0 0.0
2016-Feb-06 03:33S 34°39' W 058°21'0 0.0
2016-Feb-06 02:27S 34°39' W 058°21'0 0.0
2016-Feb-06 01:33S 34°39' W 058°21'0 0.0
2016-Feb-06 00:33S 34°39' W 058°21'0 0.0
2016-Feb-05 23:33S 34°39' W 058°21'0 0.0
2016-Feb-05 22:33S 34°39' W 058°21'4 3.6
2016-Feb-05 21:33S 34°36' W 058°17'1211.8
2016-Feb-05 20:33S 34°39' W 058°03'1312.6
2016-Feb-05 19:33S 34°44' W 057°49'9 9.3
2016-Feb-05 18:33S 34°45' W 057°37'1414.0
2016-Feb-05 17:33S 34°51' W 057°22'1414.1
2016-Feb-05 16:33S 35°02' W 057°11'1313.1
2016-Feb-05 15:33S 35°10' W 056°58'25211.7
2016-Feb-04 18:00S 33°30' W 052°18'8817.6 060 / 181013.0 5.4 1.525.522.625.0
2016-Feb-04 13:00S 32°18' W 051°18'6521.6 020 / 161011.7 5.4 1.523.518.824.0
2016-Feb-04 10:00S 31°24' W 050°36'24715.9 010 / 151009.6 1.523.021.525.0
2016-Feb-03 18:28S 27°49' W 048°16'1617.9
2016-Feb-03 17:33S 27°33' W 048°14'9917.8
2016-Feb-03 12:00S 25°54' W 048°12'118 3.0 120 / 141013.5 5.4 0.525.023.527.0
2016-Feb-01 20:33S 24°32' W 046°39'1120.5
2016-Feb-01 20:00S 24°24' W 046°30'4 8.4 110 / 61012.110.8 0.528.425.026.0
2016-Feb-01 19:33S 24°20' W 046°31'1413.5
2016-Feb-01 18:33S 24°09' W 046°24'10 9.9
2016-Feb-01 17:33S 23°60' W 046°19'5 4.5
2016-Feb-01 16:31S 23°55' W 046°21'0 0.1
2016-Feb-01 15:33S 23°55' W 046°21'0 0.0
2016-Feb-01 14:33S 23°55' W 046°21'0 0.0
2016-Feb-01 13:33S 23°55' W 046°21'0 0.0
2016-Feb-01 12:33S 23°55' W 046°21'0 0.0
2016-Feb-01 11:21S 23°55' W 046°21'0 0.0
2016-Feb-01 10:27S 23°55' W 046°21'0 0.0
2016-Feb-01 09:33S 23°55' W 046°21'0 0.0
2016-Feb-01 08:33S 23°55' W 046°21'0 0.0
2016-Feb-01 07:27S 23°55' W 046°21'0 0.0
2016-Feb-01 06:21S 23°55' W 046°21'0 0.0
2016-Feb-01 04:21S 23°55' W 046°21'0 0.0
2016-Feb-01 03:27S 23°55' W 046°21'0 0.0
2016-Jan-31 23:33S 23°55' W 046°21'0 0.0
2016-Jan-31 19:27S 23°55' W 046°21'0 0.0
2016-Jan-31 18:33S 23°55' W 046°21'0 0.0
2016-Jan-31 16:25S 23°55' W 046°21'4 4.9
2016-Jan-31 15:33S 23°58' W 046°18'7 6.9
2016-Jan-31 14:33S 24°04' W 046°22'8 7.9
2016-Jan-31 13:33S 24°12' W 046°22'0 0.4
2016-Jan-31 12:33S 24°12' W 046°22'3 6.1
2016-Jan-31 12:00S 24°12' W 046°18'4 8.3 999 / 31013.510.8 28.521.926.0
2016-Jan-31 11:33S 24°12' W 046°22'1 0.5
2016-Jan-31 10:33S 24°13' W 046°22'7 7.3
2016-Jan-31 09:33S 24°19' W 046°17'1212.2
2016-Jan-31 08:33S 24°23' W 046°05'1616.3
2016-Jan-31 07:33S 24°26' W 045°47'1716.9
2016-Jan-31 06:33S 24°28' W 045°29'1817.4
2016-Jan-31 05:33S 24°31' W 045°10'1717.2
2016-Jan-31 04:33S 24°33' W 044°51'1717.4
2016-Jan-31 03:33S 24°36' W 044°32'1717.3
2016-Jan-31 02:33S 24°39' W 044°14'1817.5
2016-Jan-31 01:33S 24°42' W 043°55'2017.5
2016-Jan-31 00:25S 24°44' W 043°33'58136.3
2016-Jan-31 00:00S 25°42' W 043°24'8521.3 050 / 181014.010.8 1.526.523.627.0
2016-Jan-30 20:00S 24°54' W 042°06'1317.5 060 / 181013.710.8 1.528.023.727.0
2016-Jan-30 19:15S 25°00' W 041°53'1217.7
2016-Jan-30 18:33S 25°02' W 041°40'4117.6
2016-Jan-30 16:14S 25°07' W 040°55'3417.9
2016-Jan-30 14:21S 25°10' W 040°18'37219.2
2016-Jan-29 19:00S 26°00' W 033°30'7618.9 150 / 91018.410.8 0.526.222.426.0
2016-Jan-29 15:00S 26°06' W 032°06'7117.8 020 / 101018.9 5.4 1.527.022.626.0
2016-Jan-29 11:00S 26°18' W 030°48'15219.0 260 / 131018.610.8 0.527.022.626.0
2016-Jan-29 03:00S 26°42' W 028°00'   280 / 101018.6 5.4 1.526.220.126.0

Dump ship's entire track history